createdAt,value
2023-11-13T00:02:20.365Z,74.00
2023-11-13T00:04:48.165Z,73.39
2023-11-13T00:07:16.261Z,73.06
2023-11-13T00:09:44.163Z,72.94
2023-11-13T00:12:12.063Z,72.97
2023-11-13T00:14:39.935Z,73.32
2023-11-13T00:17:08.126Z,73.09
2023-11-13T00:19:37.139Z,73.31
2023-11-13T00:22:05.361Z,73.46
2023-11-13T00:24:33.133Z,73.13
2023-11-13T00:27:00.881Z,73.58
2023-11-13T00:29:28.552Z,73.54
2023-11-13T00:31:56.280Z,73.26
2023-11-13T00:34:24.222Z,73.64
2023-11-13T00:36:52.640Z,73.67
2023-11-13T00:39:20.418Z,73.32
2023-11-13T00:41:48.170Z,73.61
2023-11-13T00:44:16.196Z,73.25
2023-11-13T00:46:44.194Z,73.03
2023-11-13T00:49:12.082Z,73.04
2023-11-13T00:51:39.805Z,73.45
2023-11-13T00:54:07.816Z,73.85
2023-11-13T00:56:35.474Z,73.84
2023-11-13T00:59:04.290Z,73.36
2023-11-13T01:01:32.299Z,73.19
2023-11-13T01:04:00.262Z,73.30
2023-11-13T01:06:28.002Z,73.59
2023-11-13T01:08:56.382Z,73.54
2023-11-13T01:11:24.221Z,73.57
2023-11-13T01:13:52.062Z,73.59
2023-11-13T01:16:22.798Z,74.03
2023-11-13T01:18:54.795Z,74.19
2023-11-13T01:21:23.383Z,74.23
2023-11-13T01:23:51.328Z,74.57
2023-11-13T01:26:18.972Z,74.67
2023-11-13T01:28:46.765Z,74.70
2023-11-13T01:31:17.945Z,74.91
2023-11-13T01:33:46.050Z,75.09
2023-11-13T01:36:13.880Z,74.91
2023-11-13T01:38:42.488Z,75.07
2023-11-13T01:41:10.254Z,75.32
2023-11-13T01:43:38.150Z,75.40
2023-11-13T01:46:07.592Z,74.94
2023-11-13T01:48:36.095Z,75.01
2023-11-13T01:51:04.291Z,74.94
2023-11-13T01:53:32.393Z,75.33
2023-11-13T01:56:00.685Z,75.25
2023-11-13T01:58:28.937Z,75.21
2023-11-13T02:00:56.799Z,75.32
2023-11-13T02:03:26.259Z,75.04
2023-11-13T02:05:54.447Z,75.01
2023-11-13T02:08:22.659Z,74.96
2023-11-13T02:10:50.713Z,74.57
2023-11-13T02:13:19.870Z,74.51
2023-11-13T02:15:47.734Z,74.61
2023-11-13T02:18:15.834Z,74.61
2023-11-13T02:20:43.403Z,74.38
2023-11-13T02:23:16.121Z,74.65
2023-11-13T02:25:52.708Z,74.93
2023-11-13T02:28:21.112Z,75.04
2023-11-13T02:30:49.394Z,74.89
2023-11-13T02:33:17.763Z,74.43
2023-11-13T02:35:45.534Z,74.61
2023-11-13T02:38:13.498Z,74.53
2023-11-13T02:40:41.287Z,74.62
2023-11-13T02:43:09.588Z,74.65
2023-11-13T02:45:38.019Z,74.90
2023-11-13T02:48:06.271Z,74.78
2023-11-13T02:50:34.784Z,74.97
2023-11-13T02:53:02.804Z,74.88
2023-11-13T02:55:30.514Z,74.86
2023-11-13T02:57:58.901Z,74.90
2023-11-13T03:00:26.552Z,74.58
2023-11-13T03:02:54.312Z,74.65
2023-11-13T03:05:22.415Z,74.66
2023-11-13T03:07:50.184Z,74.71
2023-11-13T03:10:18.235Z,74.63
2023-11-13T03:12:45.930Z,74.72
2023-11-13T03:15:13.596Z,74.85
2023-11-13T03:17:41.457Z,74.96
2023-11-13T03:20:10.372Z,75.07
2023-11-13T03:22:39.107Z,74.85
2023-11-13T03:25:09.766Z,74.81
2023-11-13T03:27:37.628Z,75.19
2023-11-13T03:30:10.282Z,75.19
2023-11-13T03:32:38.900Z,74.97
2023-11-13T03:35:07.635Z,75.06
2023-11-13T03:37:35.813Z,75.05
2023-11-13T03:40:04.103Z,75.18
2023-11-13T03:42:31.905Z,75.14
2023-11-13T03:45:00.060Z,75.07
2023-11-13T03:47:30.176Z,74.81
2023-11-13T03:49:58.209Z,74.81
2023-11-13T03:52:26.121Z,74.93
2023-11-13T03:54:54.309Z,75.06
2023-11-13T03:57:22.402Z,75.15
2023-11-13T03:59:50.438Z,75.15
2023-11-13T04:02:18.277Z,75.47
2023-11-13T04:04:46.535Z,75.18
2023-11-13T04:07:14.317Z,74.94
2023-11-13T04:09:42.536Z,74.94
2023-11-13T04:12:11.554Z,74.92
2023-11-13T04:14:39.633Z,74.94
2023-11-13T04:17:09.209Z,74.95
2023-11-13T04:19:36.913Z,74.98
2023-11-13T04:22:07.968Z,74.77
2023-11-13T04:24:36.135Z,74.67
2023-11-13T04:27:04.059Z,74.73
2023-11-13T04:29:32.455Z,74.71
2023-11-13T04:32:00.141Z,75.03
2023-11-13T04:34:28.130Z,74.90
2023-11-13T04:36:57.312Z,75.05
2023-11-13T04:39:25.213Z,74.95
2023-11-13T04:41:52.899Z,74.80
2023-11-13T04:44:21.022Z,75.03
2023-11-13T04:46:49.192Z,75.21
2023-11-13T04:49:17.641Z,75.20
2023-11-13T04:51:45.457Z,74.87
2023-11-13T04:54:13.985Z,74.92
2023-11-13T04:56:42.859Z,75.33
2023-11-13T04:59:10.796Z,75.23
2023-11-13T05:01:40.757Z,75.30
2023-11-13T05:04:09.032Z,75.27
2023-11-13T05:06:37.122Z,75.52
2023-11-13T05:09:05.075Z,75.40
2023-11-13T05:11:32.854Z,75.52
2023-11-13T05:14:00.642Z,75.76
2023-11-13T05:16:29.842Z,75.44
2023-11-13T05:18:57.997Z,75.80
2023-11-13T05:21:26.233Z,75.72
2023-11-13T05:23:54.001Z,75.55
2023-11-13T05:26:21.945Z,75.40
2023-11-13T05:28:50.025Z,75.49
2023-11-13T05:31:18.192Z,75.41
2023-11-13T05:33:46.270Z,75.04
2023-11-13T05:36:14.242Z,75.55
2023-11-13T05:38:43.398Z,75.52
2023-11-13T05:41:11.569Z,75.24
2023-11-13T05:43:39.417Z,75.09
2023-11-13T05:46:08.569Z,75.15
2023-11-13T05:48:36.604Z,75.06
2023-11-13T05:51:05.133Z,75.53
2023-11-13T05:53:33.712Z,75.24
2023-11-13T05:56:01.402Z,75.50
2023-11-13T05:58:29.504Z,75.28
2023-11-13T06:00:58.870Z,75.05
2023-11-13T06:03:27.178Z,75.18
2023-11-13T06:05:55.210Z,75.24
2023-11-13T06:08:23.162Z,75.57
2023-11-13T06:10:51.026Z,75.10
2023-11-13T06:13:18.983Z,75.22
2023-11-13T06:15:47.090Z,75.65
2023-11-13T06:18:14.775Z,75.46
2023-11-13T06:20:44.205Z,75.56
2023-11-13T06:23:12.131Z,75.65
2023-11-13T06:25:39.865Z,75.87
2023-11-13T06:28:08.023Z,75.94
2023-11-13T06:30:35.920Z,75.82
2023-11-13T06:33:04.418Z,76.18
2023-11-13T06:35:33.584Z,76.30
2023-11-13T06:38:02.055Z,76.44
2023-11-13T06:40:30.042Z,76.64
2023-11-13T06:42:58.273Z,76.44
2023-11-13T06:45:26.054Z,76.73
2023-11-13T06:47:54.112Z,76.49
2023-11-13T06:50:21.945Z,76.52
2023-11-13T06:52:52.527Z,76.67
2023-11-13T06:55:20.760Z,76.92
2023-11-13T06:57:49.042Z,77.00
2023-11-13T07:00:18.020Z,77.06
2023-11-13T07:02:49.141Z,77.12
2023-11-13T07:05:17.117Z,77.01
2023-11-13T07:07:44.980Z,76.91
2023-11-13T07:10:14.223Z,76.93
2023-11-13T07:12:42.761Z,76.84
2023-11-13T07:15:13.167Z,76.36
2023-11-13T07:17:41.198Z,76.90
2023-11-13T07:20:14.700Z,76.76
2023-11-13T07:22:42.522Z,76.77
2023-11-13T07:25:10.474Z,76.75
2023-11-13T07:27:38.262Z,76.79
2023-11-13T07:30:07.109Z,76.05
2023-11-13T07:32:35.496Z,76.21
2023-11-13T07:35:04.476Z,76.09
2023-11-13T07:37:34.820Z,75.97
2023-11-13T07:40:02.800Z,76.26
2023-11-13T07:42:30.829Z,75.99
2023-11-13T07:45:00.210Z,75.72
2023-11-13T07:47:29.174Z,75.73
2023-11-13T07:49:59.351Z,75.71
2023-11-13T07:52:28.282Z,75.79
2023-11-13T07:54:57.260Z,75.30
2023-11-13T07:57:25.032Z,75.45
2023-11-13T07:59:52.807Z,75.45
2023-11-13T08:02:21.514Z,75.06
2023-11-13T08:04:49.815Z,75.18
2023-11-13T08:07:25.332Z,75.11
2023-11-13T08:09:53.998Z,75.16
2023-11-13T08:12:22.058Z,75.44
2023-11-13T08:14:49.769Z,75.42
2023-11-13T08:17:18.684Z,75.30
2023-11-13T08:19:47.400Z,75.45
2023-11-13T08:22:15.496Z,75.48
2023-11-13T08:24:43.511Z,75.55
2023-11-13T08:27:11.481Z,75.48
2023-11-13T08:29:39.152Z,75.37
2023-11-13T08:32:07.512Z,75.41
2023-11-13T08:34:35.313Z,75.28
2023-11-13T08:37:24.011Z,75.28
2023-11-13T08:39:51.724Z,75.25
2023-11-13T08:42:19.442Z,75.64
2023-11-13T08:44:47.294Z,75.54
2023-11-13T08:47:16.641Z,75.58
2023-11-13T08:49:44.552Z,75.72
2023-11-13T08:52:12.713Z,75.56
2023-11-13T08:54:40.845Z,75.65
2023-11-13T08:57:08.609Z,75.67
2023-11-13T08:59:36.678Z,75.56
2023-11-13T09:02:08.024Z,75.35
2023-11-13T09:04:36.234Z,75.57
2023-11-13T09:07:10.814Z,75.33
2023-11-13T09:09:39.904Z,75.18
2023-11-13T09:12:08.344Z,75.11
2023-11-13T09:14:36.562Z,75.14
2023-11-13T09:17:12.512Z,75.12
2023-11-13T09:19:43.308Z,75.05
2023-11-13T09:22:11.819Z,75.33
2023-11-13T09:24:41.172Z,75.55
2023-11-13T09:27:12.996Z,75.79
2023-11-13T09:29:44.943Z,75.63
2023-11-13T09:32:12.915Z,75.68
2023-11-13T09:34:45.122Z,75.99
2023-11-13T09:37:13.207Z,75.85
2023-11-13T09:39:43.745Z,75.79
2023-11-13T09:42:17.700Z,75.40
2023-11-13T09:44:56.320Z,75.55
2023-11-13T09:47:30.569Z,75.52
2023-11-13T09:50:16.592Z,74.97
2023-11-13T09:52:51.670Z,75.02
2023-11-13T09:55:21.834Z,75.12
2023-11-13T09:58:00.500Z,75.16
2023-11-13T10:00:33.718Z,75.31
2023-11-13T10:03:01.918Z,75.41
2023-11-13T10:05:31.973Z,75.15
2023-11-13T10:07:59.820Z,74.94
2023-11-13T10:10:48.924Z,74.96
2023-11-13T10:13:23.188Z,74.97
2023-11-13T10:15:51.229Z,75.01
2023-11-13T10:18:27.430Z,74.99
2023-11-13T10:21:16.616Z,74.85
2023-11-13T10:23:44.592Z,75.24
2023-11-13T10:26:16.077Z,74.46
2023-11-13T10:28:43.908Z,74.73
2023-11-13T10:31:14.759Z,74.74
2023-11-13T10:34:00.687Z,74.65
2023-11-13T10:36:33.459Z,75.40
2023-11-13T10:39:01.937Z,75.37
2023-11-13T10:41:31.392Z,75.03
2023-11-13T10:43:59.160Z,75.22
2023-11-13T10:46:32.033Z,75.22
2023-11-13T10:49:01.308Z,75.78
2023-11-13T10:51:31.899Z,75.71
2023-11-13T10:54:06.828Z,75.80
2023-11-13T10:56:36.073Z,76.17
2023-11-13T10:59:04.581Z,76.21
2023-11-13T11:01:33.628Z,76.28
2023-11-13T11:04:06.892Z,76.57
2023-11-13T11:06:39.155Z,76.44
2023-11-13T11:09:09.234Z,76.53
2023-11-13T11:11:38.065Z,77.25
2023-11-13T11:14:14.304Z,77.00
2023-11-13T11:16:44.206Z,77.39
2023-11-13T11:19:33.280Z,77.60
2023-11-13T11:22:34.756Z,77.60
2023-11-13T11:25:23.661Z,77.89
2023-11-13T11:27:52.008Z,77.96
2023-11-13T11:30:19.908Z,77.98
2023-11-13T11:33:01.846Z,78.04
2023-11-13T11:35:39.176Z,77.99
2023-11-13T11:38:27.969Z,78.26
2023-11-13T11:40:59.728Z,78.06
2023-11-13T11:43:34.226Z,78.15
2023-11-13T11:46:07.599Z,78.08
2023-11-13T11:48:39.461Z,77.64
2023-11-13T11:51:21.368Z,77.86
2023-11-13T11:54:01.076Z,78.16
2023-11-13T11:56:29.519Z,77.89
2023-11-13T11:58:57.616Z,77.83
2023-11-13T12:01:27.485Z,77.92
2023-11-13T12:03:55.301Z,77.97
2023-11-13T12:06:23.335Z,78.06
2023-11-13T12:08:52.583Z,78.14
2023-11-13T12:11:21.280Z,78.00
2023-11-13T12:13:49.270Z,77.76
2023-11-13T12:16:17.200Z,77.82
2023-11-13T12:18:45.322Z,77.99
2023-11-13T12:21:13.393Z,78.14
2023-11-13T12:23:41.215Z,77.96
2023-11-13T12:26:14.289Z,77.84
2023-11-13T12:28:44.442Z,77.63
2023-11-13T12:31:20.907Z,77.79
2023-11-13T12:33:49.067Z,77.96
2023-11-13T12:36:18.400Z,78.00
2023-11-13T12:38:48.120Z,77.87
2023-11-13T12:41:16.266Z,78.13
2023-11-13T12:43:44.356Z,78.00
2023-11-13T12:46:13.528Z,78.00
2023-11-13T12:48:42.774Z,77.85
2023-11-13T12:51:11.793Z,77.81
2023-11-13T12:53:47.403Z,77.56
2023-11-13T12:56:15.297Z,77.65
2023-11-13T12:58:44.488Z,77.45
2023-11-13T13:01:16.796Z,77.18
2023-11-13T13:03:46.546Z,77.28
2023-11-13T13:06:14.825Z,77.52
2023-11-13T13:08:43.584Z,77.59
2023-11-13T13:11:11.887Z,77.64
2023-11-13T13:13:45.640Z,77.71
2023-11-13T13:16:20.504Z,77.61
2023-11-13T13:18:50.097Z,77.64
2023-11-13T13:21:17.870Z,77.57
2023-11-13T13:23:45.826Z,77.66
2023-11-13T13:26:14.041Z,77.65
2023-11-13T13:28:42.056Z,77.81
2023-11-13T13:31:12.724Z,77.84
2023-11-13T13:33:41.838Z,77.91
2023-11-13T13:36:10.818Z,77.84
2023-11-13T13:38:38.767Z,77.84
2023-11-13T13:41:06.821Z,78.05
2023-11-13T13:43:34.524Z,77.90
2023-11-13T13:46:04.161Z,77.71
2023-11-13T13:48:33.242Z,77.67
2023-11-13T13:51:02.174Z,77.95
2023-11-13T13:53:33.703Z,77.95
2023-11-13T13:56:02.426Z,77.66
2023-11-13T13:58:30.217Z,77.72
2023-11-13T14:00:58.167Z,77.63
2023-11-13T14:03:26.032Z,77.78
2023-11-13T14:05:54.187Z,77.86
2023-11-13T14:08:22.317Z,77.87
2023-11-13T14:10:52.788Z,77.76
2023-11-13T14:13:24.120Z,77.92
2023-11-13T14:18:26.192Z,77.67
2023-11-13T14:20:57.628Z,77.76
2023-11-13T14:23:27.334Z,77.71
2023-11-13T14:25:55.819Z,77.70
2023-11-13T14:28:24.273Z,77.56
2023-11-13T14:30:52.528Z,77.54
2023-11-13T14:33:23.748Z,77.41
2023-11-13T14:35:52.498Z,77.63
2023-11-13T14:38:20.635Z,77.51
2023-11-13T14:40:48.397Z,77.18
2023-11-13T14:43:16.304Z,77.48
2023-11-13T14:45:45.769Z,77.69
2023-11-13T14:48:14.713Z,77.54
2023-11-13T14:50:43.616Z,77.30
2023-11-13T14:53:11.461Z,77.44
2023-11-13T14:55:39.943Z,77.43
2023-11-13T14:58:08.035Z,77.69
2023-11-13T15:00:35.884Z,77.54
2023-11-13T15:03:03.718Z,77.55
2023-11-13T15:05:31.882Z,77.19
2023-11-13T15:07:59.642Z,77.23
2023-11-13T15:10:28.700Z,77.30
2023-11-13T15:12:56.642Z,77.56
2023-11-13T15:15:25.459Z,77.47
2023-11-13T15:17:53.422Z,77.41
2023-11-13T15:20:22.258Z,77.70
2023-11-13T15:23:08.805Z,77.47
2023-11-13T15:25:42.482Z,77.62
2023-11-13T15:28:11.537Z,77.82
2023-11-13T15:30:40.078Z,77.55
2023-11-13T15:33:09.670Z,77.28
2023-11-13T15:35:38.929Z,77.53
2023-11-13T15:38:06.701Z,77.62
2023-11-13T15:40:34.889Z,77.43
2023-11-13T15:43:02.705Z,77.18
2023-11-13T15:45:32.222Z,77.75
2023-11-13T15:48:00.926Z,77.54
2023-11-13T15:50:30.428Z,77.64
2023-11-13T15:52:58.294Z,77.41
2023-11-13T15:55:26.175Z,77.44
2023-11-13T15:57:54.018Z,77.59
2023-11-13T16:00:24.113Z,77.63
2023-11-13T16:02:51.855Z,77.07
2023-11-13T16:05:20.680Z,77.48
2023-11-13T16:07:49.324Z,77.15
2023-11-13T16:10:17.510Z,77.29
2023-11-13T16:12:53.576Z,77.46
2023-11-13T16:15:24.161Z,77.25
2023-11-13T16:17:52.648Z,77.45
2023-11-13T16:20:20.809Z,77.55
2023-11-13T16:22:51.128Z,77.66
2023-11-13T16:25:19.051Z,77.70
2023-11-13T16:27:46.773Z,77.81
2023-11-13T16:30:14.901Z,77.68
2023-11-13T16:32:43.198Z,77.49
2023-11-13T16:35:13.904Z,77.19
2023-11-13T16:37:41.929Z,77.44
2023-11-13T16:40:10.836Z,77.52
2023-11-13T16:42:40.456Z,77.31
2023-11-13T16:45:13.920Z,77.38
2023-11-13T16:47:44.118Z,77.19
2023-11-13T16:50:12.760Z,77.43
2023-11-13T16:52:40.725Z,77.44
2023-11-13T16:55:09.201Z,77.62
2023-11-13T16:57:38.276Z,77.49
2023-11-13T17:00:10.201Z,77.60
2023-11-13T17:02:43.857Z,77.65
2023-11-13T17:05:12.672Z,77.65
2023-11-13T17:07:40.300Z,77.52
2023-11-13T17:10:10.786Z,77.72
2023-11-13T17:12:39.564Z,77.78
2023-11-13T17:15:09.560Z,77.75
2023-11-13T17:17:37.552Z,77.26
2023-11-13T17:20:09.334Z,77.86
2023-11-13T17:22:40.999Z,77.48
2023-11-13T17:25:09.796Z,77.07
2023-11-13T17:27:38.746Z,77.18
2023-11-13T17:30:08.278Z,77.42
2023-11-13T17:32:37.306Z,77.31
2023-11-13T17:35:06.033Z,77.31
2023-11-13T17:37:33.973Z,77.67
2023-11-13T17:40:01.799Z,77.45
2023-11-13T17:42:31.553Z,77.48
2023-11-13T17:44:59.519Z,77.92
2023-11-13T17:47:28.212Z,77.61
2023-11-13T17:49:57.299Z,77.94
2023-11-13T17:52:25.049Z,77.63
2023-11-13T17:54:52.922Z,77.90
2023-11-13T17:57:20.720Z,77.89
2023-11-13T17:59:50.538Z,77.48
2023-11-13T18:02:20.839Z,77.39
2023-11-13T18:04:49.622Z,77.14
2023-11-13T18:07:18.751Z,77.48
2023-11-13T18:09:48.180Z,77.54
2023-11-13T18:12:15.924Z,77.48
2023-11-13T18:14:44.188Z,78.22
2023-11-13T18:17:12.565Z,77.97
2023-11-13T18:19:40.584Z,77.60
2023-11-13T18:22:08.397Z,78.06
2023-11-13T18:24:38.215Z,78.10
2023-11-13T18:27:07.124Z,77.87
2023-11-13T18:29:35.923Z,78.01
2023-11-13T18:32:06.707Z,78.22
2023-11-13T18:34:35.705Z,78.37
2023-11-13T18:37:05.085Z,77.85
2023-11-13T18:39:34.283Z,78.10
2023-11-13T18:42:03.773Z,78.55
2023-11-13T18:44:31.593Z,78.54
2023-11-13T18:46:59.441Z,78.74
2023-11-13T18:49:27.251Z,79.08
2023-11-13T18:51:55.600Z,78.97
2023-11-13T18:54:23.457Z,79.27
2023-11-13T18:56:51.441Z,79.35
2023-11-13T18:59:20.202Z,79.49
2023-11-13T19:01:48.070Z,79.88
2023-11-13T19:04:16.134Z,79.91
2023-11-13T19:06:45.582Z,80.62
2023-11-13T19:09:18.033Z,80.87
2023-11-13T19:11:47.474Z,81.06
2023-11-13T19:14:15.273Z,81.32
2023-11-13T19:16:43.868Z,81.31
2023-11-13T19:19:13.314Z,81.18
2023-11-13T19:21:41.041Z,81.33
2023-11-13T19:24:10.054Z,81.04
2023-11-13T19:26:38.534Z,81.04
2023-11-13T19:29:06.255Z,81.03
2023-11-13T19:31:34.579Z,81.04
2023-11-13T19:34:02.392Z,80.83
2023-11-13T19:36:30.108Z,80.96
2023-11-13T19:38:58.696Z,81.01
2023-11-13T19:41:27.353Z,81.17
2023-11-13T19:43:55.315Z,81.17
2023-11-13T19:46:23.625Z,81.17
2023-11-13T19:48:53.644Z,80.89
2023-11-13T19:51:22.744Z,81.07
2023-11-13T19:53:50.887Z,81.17
2023-11-13T19:56:18.943Z,81.08
2023-11-13T19:58:46.728Z,81.04
2023-11-13T20:01:14.854Z,81.27
2023-11-13T20:03:43.185Z,81.18
2023-11-13T20:06:10.937Z,81.09
2023-11-13T20:08:39.259Z,81.10
2023-11-13T20:11:08.139Z,81.08
2023-11-13T20:13:37.204Z,80.92
2023-11-13T20:16:06.349Z,81.00
2023-11-13T20:18:37.236Z,80.96
2023-11-13T20:21:06.221Z,81.19
2023-11-13T20:23:35.883Z,81.22
2023-11-13T20:26:06.931Z,81.24
2023-11-13T20:28:36.584Z,81.23
2023-11-13T20:31:04.845Z,81.05
2023-11-13T20:33:32.945Z,81.13
2023-11-13T20:36:01.846Z,81.08
2023-11-13T20:38:30.511Z,81.10
2023-11-13T20:40:58.293Z,81.14
2023-11-13T20:43:26.089Z,81.20
2023-11-13T20:45:54.175Z,81.13
2023-11-13T20:48:22.515Z,81.20
2023-11-13T20:50:50.415Z,80.96
2023-11-13T20:53:20.734Z,80.83
2023-11-13T20:55:49.004Z,80.88
2023-11-13T20:58:16.659Z,80.87
2023-11-13T21:00:44.564Z,80.95
2023-11-13T21:03:12.847Z,80.93
2023-11-13T21:05:41.757Z,80.86
2023-11-13T21:08:12.052Z,80.89
2023-11-13T21:10:40.028Z,80.98
2023-11-13T21:13:08.052Z,80.94
2023-11-13T21:15:36.012Z,80.84
2023-11-13T21:18:04.342Z,81.09
2023-11-13T21:20:32.593Z,81.09
2023-11-13T21:23:01.076Z,81.28
2023-11-13T21:25:29.305Z,81.37
2023-11-13T21:27:57.289Z,81.27
2023-11-13T21:30:25.986Z,81.47
2023-11-13T21:32:53.874Z,81.25
2023-11-13T21:35:21.810Z,81.26
2023-11-13T21:37:50.486Z,81.51
2023-11-13T21:40:20.099Z,81.63
2023-11-13T21:42:48.679Z,81.50
2023-11-13T21:45:18.160Z,81.63
2023-11-13T21:47:46.990Z,81.65
2023-11-13T21:50:17.020Z,81.66
2023-11-13T21:52:45.045Z,81.77
2023-11-13T21:55:13.415Z,81.82
2023-11-13T21:57:41.848Z,81.74
2023-11-13T22:00:11.837Z,81.53
2023-11-13T22:02:41.143Z,81.63
2023-11-13T22:05:09.803Z,81.30
2023-11-13T22:07:40.761Z,81.28
2023-11-13T22:10:09.725Z,81.48
2023-11-13T22:12:37.962Z,81.38
2023-11-13T22:15:10.954Z,81.56
2023-11-13T22:17:39.203Z,81.46
2023-11-13T22:20:08.981Z,81.65
2023-11-13T22:22:37.290Z,81.48
2023-11-13T22:25:05.264Z,81.64
2023-11-13T22:27:33.124Z,81.62
2023-11-13T22:30:01.095Z,81.41
2023-11-13T22:32:29.303Z,81.62
2023-11-13T22:34:57.181Z,81.55
2023-11-13T22:37:25.213Z,81.53
2023-11-13T22:39:52.867Z,81.34
2023-11-13T22:42:21.833Z,81.23
2023-11-13T22:44:50.762Z,81.38
2023-11-13T22:47:18.500Z,81.25
2023-11-13T22:49:47.228Z,81.05
2023-11-13T22:52:15.890Z,81.08
2023-11-13T22:54:43.649Z,81.01
2023-11-13T22:57:11.889Z,81.08
2023-11-13T22:59:39.806Z,80.95
2023-11-13T23:02:07.622Z,81.12
2023-11-13T23:04:36.323Z,81.19
2023-11-13T23:07:05.412Z,81.20
2023-11-13T23:09:34.439Z,81.04
2023-11-13T23:12:02.590Z,81.07
2023-11-13T23:14:39.912Z,80.87
2023-11-13T23:17:07.776Z,80.96
2023-11-13T23:19:36.424Z,80.76
2023-11-13T23:22:05.037Z,81.00
2023-11-13T23:24:33.258Z,81.03
2023-11-13T23:27:01.663Z,81.01
2023-11-13T23:29:29.652Z,81.09
2023-11-13T23:31:57.733Z,81.04
2023-11-13T23:34:25.690Z,80.88
2023-11-13T23:36:53.735Z,81.02
2023-11-13T23:39:21.531Z,80.82
2023-11-13T23:41:49.397Z,80.74
2023-11-13T23:44:17.142Z,80.88
2023-11-13T23:46:48.842Z,80.85
2023-11-13T23:49:16.694Z,80.72
2023-11-13T23:51:44.345Z,80.34
2023-11-13T23:54:12.197Z,80.51
2023-11-13T23:56:39.949Z,80.33
2023-11-13T23:59:08.150Z,80.19
